Terminal Aerodrome Forecast
Issued by NWS Lake Charles, LA

Home | Current Version | Previous Version | Text Only | Print | Product List | Glossary On
Versions: 1 2 3 4 5 6 7 8 9 10 11 12 13 14 15 16 17 18 19
011
FTUS44 KLCH 140935 AAC
TAFLCH
TAF AMD
KLCH 140935Z 1410/1506 13007KT P6SM SCT015 OVC050
      TEMPO 1410/1414 OVC015
     FM141600 15014G22KT P6SM VCSH BKN025 OVC035
     FM150200 14008KT 5SM BR VCSH OVC012=

USA.gov is the U.S. government's official web portal to all federal, state and local government web resources and services.